sensor_id;sensor_type;location;lat;lon;timestamp;P1;durP1;ratioP1;P2;durP2;ratioP2
34565;SDS011;20803;42.676;26.348;2022-07-23T00:00:04;4.00;;;2.87;;
34565;SDS011;20803;42.676;26.348;2022-07-23T00:02:30;6.07;;;2.60;;
34565;SDS011;20803;42.676;26.348;2022-07-23T00:04:56;6.03;;;2.80;;
34565;SDS011;20803;42.676;26.348;2022-07-23T00:07:21;4.40;;;2.80;;
34565;SDS011;20803;42.676;26.348;2022-07-23T00:09:47;4.10;;;2.97;;
34565;SDS011;20803;42.676;26.348;2022-07-23T00:12:12;3.07;;;2.63;;
34565;SDS011;20803;42.676;26.348;2022-07-23T00:14:38;3.50;;;2.43;;
34565;SDS011;20803;42.676;26.348;2022-07-23T00:17:03;3.43;;;2.70;;
34565;SDS011;20803;42.676;26.348;2022-07-23T00:19:28;3.70;;;2.73;;
34565;SDS011;20803;42.676;26.348;2022-07-23T00:21:54;3.83;;;2.73;;
34565;SDS011;20803;42.676;26.348;2022-07-23T00:24:20;5.63;;;2.40;;
34565;SDS011;20803;42.676;26.348;2022-07-23T00:26:45;3.77;;;2.67;;
34565;SDS011;20803;42.676;26.348;2022-07-23T00:29:11;5.57;;;2.60;;
34565;SDS011;20803;42.676;26.348;2022-07-23T00:31:36;3.83;;;2.90;;
34565;SDS011;20803;42.676;26.348;2022-07-23T00:34:02;5.43;;;2.73;;
34565;SDS011;20803;42.676;26.348;2022-07-23T00:36:27;3.97;;;2.57;;
34565;SDS011;20803;42.676;26.348;2022-07-23T00:38:53;4.43;;;2.77;;
34565;SDS011;20803;42.676;26.348;2022-07-23T00:41:18;4.33;;;2.87;;
34565;SDS011;20803;42.676;26.348;2022-07-23T00:43:44;4.37;;;2.87;;
34565;SDS011;20803;42.676;26.348;2022-07-23T00:46:10;5.37;;;2.93;;
34565;SDS011;20803;42.676;26.348;2022-07-23T00:48:35;4.37;;;3.07;;
34565;SDS011;20803;42.676;26.348;2022-07-23T00:51:01;5.70;;;2.50;;
34565;SDS011;20803;42.676;26.348;2022-07-23T00:53:26;3.20;;;2.90;;
34565;SDS011;20803;42.676;26.348;2022-07-23T00:55:53;7.03;;;3.20;;
34565;SDS011;20803;42.676;26.348;2022-07-23T00:58:18;5.13;;;2.70;;
34565;SDS011;20803;42.676;26.348;2022-07-23T01:00:44;3.87;;;2.73;;
34565;SDS011;20803;42.676;26.348;2022-07-23T01:03:10;3.53;;;2.47;;
34565;SDS011;20803;42.676;26.348;2022-07-23T01:05:35;4.10;;;2.70;;
34565;SDS011;20803;42.676;26.348;2022-07-23T01:08:01;6.97;;;2.90;;
34565;SDS011;20803;42.676;26.348;2022-07-23T01:10:27;3.77;;;2.60;;
34565;SDS011;20803;42.676;26.348;2022-07-23T01:15:25;5.23;;;2.73;;
34565;SDS011;20803;42.676;26.348;2022-07-23T01:17:51;5.13;;;3.00;;
34565;SDS011;20803;42.676;26.348;2022-07-23T01:20:16;6.30;;;2.70;;
34565;SDS011;20803;42.676;26.348;2022-07-23T01:22:42;3.73;;;3.00;;
34565;SDS011;20803;42.676;26.348;2022-07-23T01:25:08;7.33;;;2.73;;
34565;SDS011;20803;42.676;26.348;2022-07-23T01:27:34;4.10;;;2.70;;
34565;SDS011;20803;42.676;26.348;2022-07-23T01:30:00;3.87;;;2.90;;
34565;SDS011;20803;42.676;26.348;2022-07-23T01:32:26;5.20;;;3.00;;
34565;SDS011;20803;42.676;26.348;2022-07-23T01:34:51;5.57;;;3.37;;
34565;SDS011;20803;42.676;26.348;2022-07-23T01:37:16;8.03;;;2.93;;
34565;SDS011;20803;42.676;26.348;2022-07-23T01:39:42;5.30;;;2.77;;
34565;SDS011;20803;42.676;26.348;2022-07-23T01:42:07;5.97;;;2.90;;
34565;SDS011;20803;42.676;26.348;2022-07-23T01:44:33;8.60;;;2.80;;
34565;SDS011;20803;42.676;26.348;2022-07-23T01:46:58;6.17;;;3.07;;
34565;SDS011;20803;42.676;26.348;2022-07-23T01:49:24;5.67;;;2.90;;
34565;SDS011;20803;42.676;26.348;2022-07-23T01:51:49;7.33;;;2.83;;
34565;SDS011;20803;42.676;26.348;2022-07-23T01:54:27;6.30;;;3.20;;
34565;SDS011;20803;42.676;26.348;2022-07-23T01:56:58;5.90;;;3.17;;
34565;SDS011;20803;42.676;26.348;2022-07-23T01:59:24;6.60;;;2.63;;
34565;SDS011;20803;42.676;26.348;2022-07-23T02:01:51;4.03;;;2.77;;
34565;SDS011;20803;42.676;26.348;2022-07-23T02:04:21;3.00;;;2.33;;
34565;SDS011;20803;42.676;26.348;2022-07-23T02:06:47;5.13;;;2.93;;
34565;SDS011;20803;42.676;26.348;2022-07-23T02:09:13;4.90;;;3.07;;
34565;SDS011;20803;42.676;26.348;2022-07-23T02:11:39;6.20;;;3.00;;
34565;SDS011;20803;42.676;26.348;2022-07-23T02:14:04;6.47;;;2.80;;
34565;SDS011;20803;42.676;26.348;2022-07-23T02:16:30;4.10;;;3.00;;
34565;SDS011;20803;42.676;26.348;2022-07-23T02:18:55;5.57;;;2.77;;
34565;SDS011;20803;42.676;26.348;2022-07-23T02:21:21;8.00;;;3.27;;
34565;SDS011;20803;42.676;26.348;2022-07-23T02:23:46;6.53;;;3.37;;
34565;SDS011;20803;42.676;26.348;2022-07-23T02:26:12;4.23;;;3.03;;
34565;SDS011;20803;42.676;26.348;2022-07-23T02:28:37;3.67;;;2.73;;
34565;SDS011;20803;42.676;26.348;2022-07-23T02:31:03;7.23;;;3.20;;
34565;SDS011;20803;42.676;26.348;2022-07-23T02:33:29;4.90;;;2.80;;
34565;SDS011;20803;42.676;26.348;2022-07-23T02:35:54;5.17;;;3.13;;
34565;SDS011;20803;42.676;26.348;2022-07-23T02:38:20;3.67;;;2.83;;
34565;SDS011;20803;42.676;26.348;2022-07-23T02:40:45;4.53;;;3.10;;
34565;SDS011;20803;42.676;26.348;2022-07-23T02:43:11;9.23;;;3.03;;
34565;SDS011;20803;42.676;26.348;2022-07-23T02:45:36;5.67;;;3.10;;
34565;SDS011;20803;42.676;26.348;2022-07-23T02:48:02;8.20;;;3.17;;
34565;SDS011;20803;42.676;26.348;2022-07-23T02:50:27;7.57;;;3.10;;
34565;SDS011;20803;42.676;26.348;2022-07-23T02:52:53;9.03;;;3.00;;
34565;SDS011;20803;42.676;26.348;2022-07-23T02:55:18;6.27;;;2.93;;
34565;SDS011;20803;42.676;26.348;2022-07-23T02:57:44;5.70;;;3.03;;
34565;SDS011;20803;42.676;26.348;2022-07-23T03:00:09;5.13;;;2.90;;
34565;SDS011;20803;42.676;26.348;2022-07-23T03:02:35;6.60;;;2.83;;
34565;SDS011;20803;42.676;26.348;2022-07-23T03:05:01;6.00;;;3.00;;
34565;SDS011;20803;42.676;26.348;2022-07-23T03:07:26;6.20;;;3.20;;
34565;SDS011;20803;42.676;26.348;2022-07-23T03:09:52;5.17;;;2.97;;
34565;SDS011;20803;42.676;26.348;2022-07-23T03:12:17;6.50;;;2.97;;
34565;SDS011;20803;42.676;26.348;2022-07-23T03:14:43;5.23;;;3.03;;
34565;SDS011;20803;42.676;26.348;2022-07-23T03:17:08;7.50;;;2.80;;
34565;SDS011;20803;42.676;26.348;2022-07-23T03:19:34;5.67;;;3.40;;
34565;SDS011;20803;42.676;26.348;2022-07-23T03:22:00;7.43;;;3.53;;
34565;SDS011;20803;42.676;26.348;2022-07-23T03:24:25;5.43;;;3.20;;
34565;SDS011;20803;42.676;26.348;2022-07-23T03:27:10;5.57;;;2.87;;
34565;SDS011;20803;42.676;26.348;2022-07-23T03:29:36;6.30;;;2.97;;
34565;SDS011;20803;42.676;26.348;2022-07-23T03:32:02;15.93;;;3.20;;
34565;SDS011;20803;42.676;26.348;2022-07-23T03:34:28;5.10;;;3.23;;
34565;SDS011;20803;42.676;26.348;2022-07-23T03:36:54;8.27;;;3.10;;
34565;SDS011;20803;42.676;26.348;2022-07-23T03:39:19;6.63;;;3.33;;
34565;SDS011;20803;42.676;26.348;2022-07-23T03:41:45;7.17;;;2.70;;
34565;SDS011;20803;42.676;26.348;2022-07-23T03:44:13;6.00;;;3.27;;
34565;SDS011;20803;42.676;26.348;2022-07-23T03:46:38;7.90;;;3.40;;
34565;SDS011;20803;42.676;26.348;2022-07-23T03:49:04;3.87;;;2.97;;
34565;SDS011;20803;42.676;26.348;2022-07-23T03:51:29;6.53;;;3.40;;
34565;SDS011;20803;42.676;26.348;2022-07-23T03:53:55;6.50;;;3.30;;
34565;SDS011;20803;42.676;26.348;2022-07-23T03:56:20;8.00;;;3.23;;
34565;SDS011;20803;42.676;26.348;2022-07-23T03:58:46;8.13;;;3.07;;
34565;SDS011;20803;42.676;26.348;2022-07-23T04:01:12;4.70;;;2.93;;
34565;SDS011;20803;42.676;26.348;2022-07-23T04:03:37;8.00;;;3.33;;
34565;SDS011;20803;42.676;26.348;2022-07-23T04:06:03;5.90;;;3.70;;
34565;SDS011;20803;42.676;26.348;2022-07-23T04:08:29;4.83;;;3.53;;
34565;SDS011;20803;42.676;26.348;2022-07-23T04:10:54;5.83;;;3.37;;
34565;SDS011;20803;42.676;26.348;2022-07-23T04:13:20;11.80;;;3.50;;
34565;SDS011;20803;42.676;26.348;2022-07-23T04:15:45;6.33;;;3.37;;
34565;SDS011;20803;42.676;26.348;2022-07-23T04:18:11;10.47;;;3.50;;
34565;SDS011;20803;42.676;26.348;2022-07-23T04:20:37;7.07;;;3.40;;
34565;SDS011;20803;42.676;26.348;2022-07-23T04:23:02;6.27;;;3.00;;
34565;SDS011;20803;42.676;26.348;2022-07-23T04:25:28;6.63;;;3.70;;
34565;SDS011;20803;42.676;26.348;2022-07-23T04:27:53;6.77;;;3.50;;
34565;SDS011;20803;42.676;26.348;2022-07-23T04:30:19;10.27;;;3.13;;
34565;SDS011;20803;42.676;26.348;2022-07-23T04:32:44;9.87;;;3.60;;
34565;SDS011;20803;42.676;26.348;2022-07-23T04:35:09;7.13;;;3.47;;
34565;SDS011;20803;42.676;26.348;2022-07-23T04:37:35;6.17;;;3.13;;
34565;SDS011;20803;42.676;26.348;2022-07-23T04:40:00;7.87;;;3.20;;
34565;SDS011;20803;42.676;26.348;2022-07-23T04:42:26;9.43;;;3.43;;
34565;SDS011;20803;42.676;26.348;2022-07-23T04:44:51;5.63;;;3.30;;
34565;SDS011;20803;42.676;26.348;2022-07-23T04:47:16;7.60;;;3.47;;
34565;SDS011;20803;42.676;26.348;2022-07-23T04:49:42;6.90;;;3.87;;
34565;SDS011;20803;42.676;26.348;2022-07-23T04:52:07;7.63;;;3.33;;
34565;SDS011;20803;42.676;26.348;2022-07-23T04:54:33;7.33;;;3.80;;
34565;SDS011;20803;42.676;26.348;2022-07-23T04:56:58;9.57;;;3.40;;
34565;SDS011;20803;42.676;26.348;2022-07-23T04:59:24;5.23;;;3.40;;
34565;SDS011;20803;42.676;26.348;2022-07-23T05:01:49;9.43;;;3.90;;
34565;SDS011;20803;42.676;26.348;2022-07-23T05:04:14;6.53;;;3.70;;
34565;SDS011;20803;42.676;26.348;2022-07-23T05:06:40;31.13;;;4.73;;
34565;SDS011;20803;42.676;26.348;2022-07-23T05:09:05;14.43;;;4.23;;
34565;SDS011;20803;42.676;26.348;2022-07-23T05:11:31;9.60;;;3.80;;
34565;SDS011;20803;42.676;26.348;2022-07-23T05:13:56;3.80;;;3.40;;
34565;SDS011;20803;42.676;26.348;2022-07-23T05:16:22;8.53;;;3.20;;
34565;SDS011;20803;42.676;26.348;2022-07-23T05:18:47;10.53;;;3.57;;
34565;SDS011;20803;42.676;26.348;2022-07-23T05:21:13;7.03;;;3.60;;
34565;SDS011;20803;42.676;26.348;2022-07-23T05:23:38;6.50;;;4.00;;
34565;SDS011;20803;42.676;26.348;2022-07-23T05:26:04;5.43;;;3.40;;
34565;SDS011;20803;42.676;26.348;2022-07-23T05:28:29;7.57;;;3.63;;
34565;SDS011;20803;42.676;26.348;2022-07-23T05:30:54;8.40;;;3.87;;
34565;SDS011;20803;42.676;26.348;2022-07-23T05:33:20;8.97;;;4.97;;
34565;SDS011;20803;42.676;26.348;2022-07-23T05:35:46;5.77;;;4.10;;
34565;SDS011;20803;42.676;26.348;2022-07-23T05:38:11;7.57;;;3.93;;
34565;SDS011;20803;42.676;26.348;2022-07-23T05:40:37;7.60;;;3.80;;
34565;SDS011;20803;42.676;26.348;2022-07-23T05:43:02;6.97;;;3.70;;
34565;SDS011;20803;42.676;26.348;2022-07-23T05:45:28;11.80;;;4.37;;
34565;SDS011;20803;42.676;26.348;2022-07-23T05:47:53;9.77;;;3.90;;
34565;SDS011;20803;42.676;26.348;2022-07-23T05:50:18;9.00;;;3.60;;
34565;SDS011;20803;42.676;26.348;2022-07-23T05:52:44;6.40;;;3.93;;
34565;SDS011;20803;42.676;26.348;2022-07-23T05:55:10;21.07;;;6.83;;
34565;SDS011;20803;42.676;26.348;2022-07-23T05:57:37;5.93;;;4.27;;
34565;SDS011;20803;42.676;26.348;2022-07-23T06:00:03;8.40;;;3.80;;
34565;SDS011;20803;42.676;26.348;2022-07-23T06:02:30;5.33;;;4.07;;
34565;SDS011;20803;42.676;26.348;2022-07-23T06:04:55;10.90;;;3.93;;
34565;SDS011;20803;42.676;26.348;2022-07-23T06:07:21;6.97;;;3.83;;
34565;SDS011;20803;42.676;26.348;2022-07-23T06:09:46;7.23;;;4.57;;
34565;SDS011;20803;42.676;26.348;2022-07-23T06:12:14;18.97;;;5.37;;
34565;SDS011;20803;42.676;26.348;2022-07-23T06:14:40;8.57;;;4.40;;
34565;SDS011;20803;42.676;26.348;2022-07-23T06:17:05;8.10;;;4.67;;
34565;SDS011;20803;42.676;26.348;2022-07-23T06:19:30;10.83;;;4.50;;
34565;SDS011;20803;42.676;26.348;2022-07-23T06:21:56;13.23;;;5.17;;
34565;SDS011;20803;42.676;26.348;2022-07-23T06:24:21;13.70;;;4.83;;
34565;SDS011;20803;42.676;26.348;2022-07-23T06:26:47;8.13;;;4.70;;
34565;SDS011;20803;42.676;26.348;2022-07-23T06:29:12;12.73;;;5.23;;
34565;SDS011;20803;42.676;26.348;2022-07-23T06:31:38;7.17;;;4.47;;
34565;SDS011;20803;42.676;26.348;2022-07-23T06:34:03;11.00;;;6.60;;
34565;SDS011;20803;42.676;26.348;2022-07-23T06:36:29;13.43;;;4.60;;
34565;SDS011;20803;42.676;26.348;2022-07-23T06:38:54;7.10;;;5.00;;
34565;SDS011;20803;42.676;26.348;2022-07-23T06:41:20;7.43;;;4.07;;
34565;SDS011;20803;42.676;26.348;2022-07-23T06:43:45;9.27;;;3.73;;
34565;SDS011;20803;42.676;26.348;2022-07-23T06:46:10;9.27;;;3.93;;
34565;SDS011;20803;42.676;26.348;2022-07-23T06:48:36;8.13;;;3.97;;
34565;SDS011;20803;42.676;26.348;2022-07-23T06:51:02;8.40;;;3.77;;
34565;SDS011;20803;42.676;26.348;2022-07-23T06:53:28;10.17;;;4.40;;
34565;SDS011;20803;42.676;26.348;2022-07-23T06:55:53;12.23;;;4.60;;
34565;SDS011;20803;42.676;26.348;2022-07-23T06:58:19;6.73;;;4.17;;
34565;SDS011;20803;42.676;26.348;2022-07-23T07:00:45;5.63;;;3.80;;
34565;SDS011;20803;42.676;26.348;2022-07-23T07:03:10;5.40;;;4.20;;
34565;SDS011;20803;42.676;26.348;2022-07-23T07:05:36;6.47;;;4.30;;
34565;SDS011;20803;42.676;26.348;2022-07-23T07:08:01;7.37;;;3.90;;
34565;SDS011;20803;42.676;26.348;2022-07-23T07:10:27;10.10;;;4.07;;
34565;SDS011;20803;42.676;26.348;2022-07-23T07:12:52;9.07;;;4.73;;
34565;SDS011;20803;42.676;26.348;2022-07-23T07:15:18;8.43;;;4.80;;
34565;SDS011;20803;42.676;26.348;2022-07-23T07:17:43;10.93;;;4.63;;
34565;SDS011;20803;42.676;26.348;2022-07-23T07:20:09;20.10;;;4.73;;
34565;SDS011;20803;42.676;26.348;2022-07-23T07:22:35;10.03;;;4.23;;
34565;SDS011;20803;42.676;26.348;2022-07-23T07:25:01;7.57;;;4.60;;
34565;SDS011;20803;42.676;26.348;2022-07-23T07:27:26;9.23;;;4.30;;
34565;SDS011;20803;42.676;26.348;2022-07-23T07:29:52;5.47;;;4.40;;
34565;SDS011;20803;42.676;26.348;2022-07-23T07:32:17;8.47;;;3.90;;
34565;SDS011;20803;42.676;26.348;2022-07-23T07:34:42;5.80;;;4.10;;
34565;SDS011;20803;42.676;26.348;2022-07-23T07:37:08;8.77;;;4.57;;
34565;SDS011;20803;42.676;26.348;2022-07-23T07:39:33;13.70;;;4.30;;
34565;SDS011;20803;42.676;26.348;2022-07-23T07:41:59;9.47;;;7.40;;
34565;SDS011;20803;42.676;26.348;2022-07-23T07:44:24;8.77;;;4.27;;
34565;SDS011;20803;42.676;26.348;2022-07-23T07:46:50;13.33;;;5.77;;
34565;SDS011;20803;42.676;26.348;2022-07-23T07:49:15;6.87;;;4.40;;
34565;SDS011;20803;42.676;26.348;2022-07-23T07:51:44;7.90;;;4.70;;
34565;SDS011;20803;42.676;26.348;2022-07-23T07:54:10;12.83;;;4.60;;
34565;SDS011;20803;42.676;26.348;2022-07-23T07:56:35;15.90;;;5.37;;
34565;SDS011;20803;42.676;26.348;2022-07-23T07:59:01;9.43;;;5.00;;
34565;SDS011;20803;42.676;26.348;2022-07-23T08:01:26;13.43;;;5.13;;
34565;SDS011;20803;42.676;26.348;2022-07-23T08:03:52;11.20;;;6.70;;
34565;SDS011;20803;42.676;26.348;2022-07-23T08:06:17;14.10;;;5.60;;
34565;SDS011;20803;42.676;26.348;2022-07-23T08:08:42;11.07;;;5.30;;
34565;SDS011;20803;42.676;26.348;2022-07-23T08:11:08;12.83;;;5.37;;
34565;SDS011;20803;42.676;26.348;2022-07-23T08:13:33;18.07;;;5.50;;
34565;SDS011;20803;42.676;26.348;2022-07-23T08:15:59;13.87;;;5.60;;
34565;SDS011;20803;42.676;26.348;2022-07-23T08:18:24;21.40;;;8.13;;
34565;SDS011;20803;42.676;26.348;2022-07-23T08:20:49;19.47;;;6.27;;
34565;SDS011;20803;42.676;26.348;2022-07-23T08:23:15;9.63;;;4.60;;
34565;SDS011;20803;42.676;26.348;2022-07-23T08:25:44;10.90;;;5.23;;
34565;SDS011;20803;42.676;26.348;2022-07-23T08:28:10;19.27;;;6.33;;
34565;SDS011;20803;42.676;26.348;2022-07-23T08:30:37;26.30;;;8.07;;
34565;SDS011;20803;42.676;26.348;2022-07-23T08:33:04;16.03;;;6.80;;
34565;SDS011;20803;42.676;26.348;2022-07-23T08:35:42;12.17;;;6.17;;
34565;SDS011;20803;42.676;26.348;2022-07-23T08:38:11;14.40;;;4.80;;
34565;SDS011;20803;42.676;26.348;2022-07-23T08:40:40;16.90;;;5.50;;
34565;SDS011;20803;42.676;26.348;2022-07-23T08:43:08;18.23;;;6.17;;
34565;SDS011;20803;42.676;26.348;2022-07-23T08:45:38;35.97;;;8.27;;
34565;SDS011;20803;42.676;26.348;2022-07-23T08:48:07;14.23;;;5.47;;
34565;SDS011;20803;42.676;26.348;2022-07-23T08:50:34;14.40;;;4.72;;
34565;SDS011;20803;42.676;26.348;2022-07-23T08:53:06;9.87;;;4.57;;
34565;SDS011;20803;42.676;26.348;2022-07-23T08:55:32;12.70;;;5.87;;
34565;SDS011;20803;42.676;26.348;2022-07-23T08:57:58;20.25;;;6.22;;
34565;SDS011;20803;42.676;26.348;2022-07-23T09:00:23;15.50;;;5.30;;
34565;SDS011;20803;42.676;26.348;2022-07-23T09:02:49;12.35;;;4.93;;
34565;SDS011;20803;42.676;26.348;2022-07-23T09:05:16;12.13;;;4.67;;
34565;SDS011;20803;42.676;26.348;2022-07-23T09:10:29;8.52;;;4.15;;
34565;SDS011;20803;42.676;26.348;2022-07-23T09:12:54;7.70;;;4.63;;
34565;SDS011;20803;42.676;26.348;2022-07-23T09:15:20;8.20;;;4.60;;
34565;SDS011;20803;42.676;26.348;2022-07-23T09:17:45;6.05;;;4.05;;
34565;SDS011;20803;42.676;26.348;2022-07-23T09:20:14;7.57;;;4.20;;
34565;SDS011;20803;42.676;26.348;2022-07-23T09:22:44;8.38;;;4.55;;
34565;SDS011;20803;42.676;26.348;2022-07-23T09:25:15;7.65;;;4.28;;
34565;SDS011;20803;42.676;26.348;2022-07-23T09:30:12;10.45;;;4.93;;
34565;SDS011;20803;42.676;26.348;2022-07-23T09:32:38;7.75;;;4.70;;
34565;SDS011;20803;42.676;26.348;2022-07-23T09:35:05;5.43;;;4.05;;
34565;SDS011;20803;42.676;26.348;2022-07-23T09:37:30;9.50;;;4.77;;
34565;SDS011;20803;42.676;26.348;2022-07-23T09:40:03;9.60;;;4.70;;
34565;SDS011;20803;42.676;26.348;2022-07-23T09:42:29;7.80;;;4.47;;
34565;SDS011;20803;42.676;26.348;2022-07-23T09:44:56;6.63;;;4.47;;
34565;SDS011;20803;42.676;26.348;2022-07-23T09:47:23;8.95;;;4.50;;
34565;SDS011;20803;42.676;26.348;2022-07-23T09:50:03;8.60;;;4.63;;
34565;SDS011;20803;42.676;26.348;2022-07-23T09:52:44;10.13;;;5.32;;
34565;SDS011;20803;42.676;26.348;2022-07-23T09:55:12;8.10;;;5.20;;
34565;SDS011;20803;42.676;26.348;2022-07-23T09:57:38;7.93;;;4.50;;
34565;SDS011;20803;42.676;26.348;2022-07-23T10:00:06;7.53;;;4.85;;
34565;SDS011;20803;42.676;26.348;2022-07-23T10:02:35;12.97;;;4.60;;
34565;SDS011;20803;42.676;26.348;2022-07-23T10:05:03;10.07;;;4.45;;
34565;SDS011;20803;42.676;26.348;2022-07-23T10:07:34;8.50;;;4.13;;
34565;SDS011;20803;42.676;26.348;2022-07-23T10:10:02;8.73;;;5.07;;
34565;SDS011;20803;42.676;26.348;2022-07-23T10:12:29;8.35;;;5.03;;
34565;SDS011;20803;42.676;26.348;2022-07-23T10:15:13;8.30;;;4.78;;
34565;SDS011;20803;42.676;26.348;2022-07-23T10:17:39;7.97;;;4.90;;
34565;SDS011;20803;42.676;26.348;2022-07-23T10:20:04;7.27;;;4.67;;
34565;SDS011;20803;42.676;26.348;2022-07-23T10:22:31;9.25;;;5.22;;
34565;SDS011;20803;42.676;26.348;2022-07-23T10:39:28;15.05;;;6.18;;
34565;SDS011;20803;42.676;26.348;2022-07-23T10:42:12;8.53;;;4.70;;
34565;SDS011;20803;42.676;26.348;2022-07-23T10:47:08;13.10;;;5.07;;
34565;SDS011;20803;42.676;26.348;2022-07-23T10:53:12;11.30;;;5.85;;
34565;SDS011;20803;42.676;26.348;2022-07-23T10:55:45;10.95;;;5.13;;
34565;SDS011;20803;42.676;26.348;2022-07-23T10:58:22;8.52;;;5.40;;
34565;SDS011;20803;42.676;26.348;2022-07-23T11:04:03;13.88;;;5.75;;
34565;SDS011;20803;42.676;26.348;2022-07-23T11:09:29;9.27;;;5.70;;
34565;SDS011;20803;42.676;26.348;2022-07-23T11:20:16;5.70;;;4.90;;
34565;SDS011;20803;42.676;26.348;2022-07-23T11:25:12;12.20;;;5.70;;
34565;SDS011;20803;42.676;26.348;2022-07-23T11:27:47;9.57;;;5.28;;
34565;SDS011;20803;42.676;26.348;2022-07-23T11:35:38;6.50;;;4.90;;
34565;SDS011;20803;42.676;26.348;2022-07-23T11:40:46;11.87;;;5.33;;
34565;SDS011;20803;42.676;26.348;2022-07-23T11:43:13;7.00;;;4.93;;
34565;SDS011;20803;42.676;26.348;2022-07-23T11:45:40;9.20;;;5.10;;
34565;SDS011;20803;42.676;26.348;2022-07-23T11:48:09;6.37;;;5.03;;
34565;SDS011;20803;42.676;26.348;2022-07-23T11:50:41;7.03;;;5.77;;
34565;SDS011;20803;42.676;26.348;2022-07-23T11:53:07;5.20;;;4.63;;
34565;SDS011;20803;42.676;26.348;2022-07-23T11:55:32;10.13;;;5.50;;
34565;SDS011;20803;42.676;26.348;2022-07-23T11:57:58;9.57;;;4.77;;
34565;SDS011;20803;42.676;26.348;2022-07-23T12:00:24;7.87;;;5.37;;
34565;SDS011;20803;42.676;26.348;2022-07-23T12:02:53;10.03;;;5.40;;
34565;SDS011;20803;42.676;26.348;2022-07-23T12:05:31;10.50;;;4.97;;
34565;SDS011;20803;42.676;26.348;2022-07-23T12:07:58;9.87;;;5.50;;
34565;SDS011;20803;42.676;26.348;2022-07-23T12:12:55;10.73;;;6.00;;
34565;SDS011;20803;42.676;26.348;2022-07-23T12:15:23;7.90;;;5.22;;
34565;SDS011;20803;42.676;26.348;2022-07-23T12:17:56;9.30;;;5.43;;
34565;SDS011;20803;42.676;26.348;2022-07-23T12:20:24;10.77;;;5.87;;
34565;SDS011;20803;42.676;26.348;2022-07-23T12:22:52;13.35;;;5.75;;
34565;SDS011;20803;42.676;26.348;2022-07-23T12:25:22;9.23;;;5.45;;
34565;SDS011;20803;42.676;26.348;2022-07-23T12:33:02;8.73;;;4.93;;
34565;SDS011;20803;42.676;26.348;2022-07-23T12:35:32;9.27;;;5.30;;
34565;SDS011;20803;42.676;26.348;2022-07-23T12:38:06;15.53;;;5.97;;
34565;SDS011;20803;42.676;26.348;2022-07-23T12:40:37;9.68;;;5.53;;
34565;SDS011;20803;42.676;26.348;2022-07-23T12:43:07;7.20;;;5.50;;
34565;SDS011;20803;42.676;26.348;2022-07-23T12:45:44;13.98;;;5.63;;
34565;SDS011;20803;42.676;26.348;2022-07-23T12:48:15;7.17;;;5.30;;
34565;SDS011;20803;42.676;26.348;2022-07-23T12:50:52;10.63;;;6.07;;
34565;SDS011;20803;42.676;26.348;2022-07-23T12:53:19;8.95;;;5.30;;
34565;SDS011;20803;42.676;26.348;2022-07-23T12:55:50;16.13;;;5.78;;
34565;SDS011;20803;42.676;26.348;2022-07-23T12:58:23;9.90;;;6.32;;
34565;SDS011;20803;42.676;26.348;2022-07-23T13:01:10;11.40;;;5.97;;
34565;SDS011;20803;42.676;26.348;2022-07-23T13:06:34;10.77;;;5.88;;
34565;SDS011;20803;42.676;26.348;2022-07-23T13:09:02;8.85;;;5.15;;
34565;SDS011;20803;42.676;26.348;2022-07-23T13:11:29;11.07;;;5.40;;
34565;SDS011;20803;42.676;26.348;2022-07-23T13:13:55;8.68;;;5.68;;
34565;SDS011;20803;42.676;26.348;2022-07-23T13:16:21;12.70;;;5.85;;
34565;SDS011;20803;42.676;26.348;2022-07-23T13:18:46;11.43;;;5.53;;
34565;SDS011;20803;42.676;26.348;2022-07-23T13:21:12;13.55;;;5.45;;
34565;SDS011;20803;42.676;26.348;2022-07-23T13:23:37;13.68;;;5.82;;
34565;SDS011;20803;42.676;26.348;2022-07-23T13:26:03;12.07;;;6.18;;
34565;SDS011;20803;42.676;26.348;2022-07-23T13:28:29;12.32;;;5.55;;
34565;SDS011;20803;42.676;26.348;2022-07-23T13:30:55;11.55;;;5.68;;
34565;SDS011;20803;42.676;26.348;2022-07-23T13:33:22;7.45;;;5.45;;
34565;SDS011;20803;42.676;26.348;2022-07-23T13:35:49;11.88;;;6.15;;
34565;SDS011;20803;42.676;26.348;2022-07-23T13:38:16;9.90;;;5.68;;
34565;SDS011;20803;42.676;26.348;2022-07-23T13:40:43;6.78;;;5.65;;
34565;SDS011;20803;42.676;26.348;2022-07-23T13:43:11;12.77;;;5.78;;
34565;SDS011;20803;42.676;26.348;2022-07-23T13:45:39;10.85;;;5.80;;
34565;SDS011;20803;42.676;26.348;2022-07-23T13:48:05;14.07;;;6.50;;
34565;SDS011;20803;42.676;26.348;2022-07-23T13:50:31;12.55;;;6.43;;
34565;SDS011;20803;42.676;26.348;2022-07-23T13:53:00;11.32;;;5.70;;
34565;SDS011;20803;42.676;26.348;2022-07-23T13:55:27;10.07;;;5.95;;
34565;SDS011;20803;42.676;26.348;2022-07-23T13:57:52;9.35;;;6.07;;
34565;SDS011;20803;42.676;26.348;2022-07-23T14:00:17;9.88;;;5.63;;
34565;SDS011;20803;42.676;26.348;2022-07-23T14:02:43;14.40;;;5.43;;
34565;SDS011;20803;42.676;26.348;2022-07-23T14:05:09;9.95;;;5.72;;
34565;SDS011;20803;42.676;26.348;2022-07-23T14:07:35;10.00;;;5.50;;
34565;SDS011;20803;42.676;26.348;2022-07-23T14:10:05;7.75;;;5.28;;
34565;SDS011;20803;42.676;26.348;2022-07-23T14:12:32;8.50;;;5.20;;
34565;SDS011;20803;42.676;26.348;2022-07-23T14:14:58;8.20;;;4.78;;
34565;SDS011;20803;42.676;26.348;2022-07-23T14:17:23;7.97;;;6.00;;
34565;SDS011;20803;42.676;26.348;2022-07-23T14:19:49;14.98;;;6.03;;
34565;SDS011;20803;42.676;26.348;2022-07-23T14:22:15;12.57;;;6.00;;
34565;SDS011;20803;42.676;26.348;2022-07-23T14:24:41;8.97;;;6.13;;
34565;SDS011;20803;42.676;26.348;2022-07-23T14:27:07;7.67;;;6.03;;
34565;SDS011;20803;42.676;26.348;2022-07-23T14:29:32;14.27;;;5.67;;
34565;SDS011;20803;42.676;26.348;2022-07-23T14:31:58;10.93;;;5.43;;
34565;SDS011;20803;42.676;26.348;2022-07-23T14:34:24;9.87;;;5.30;;
34565;SDS011;20803;42.676;26.348;2022-07-23T14:36:50;11.13;;;5.40;;
34565;SDS011;20803;42.676;26.348;2022-07-23T14:39:16;11.07;;;5.47;;
34565;SDS011;20803;42.676;26.348;2022-07-23T14:41:42;9.93;;;5.63;;
34565;SDS011;20803;42.676;26.348;2022-07-23T14:44:07;12.13;;;6.33;;
34565;SDS011;20803;42.676;26.348;2022-07-23T14:46:33;13.57;;;6.00;;
34565;SDS011;20803;42.676;26.348;2022-07-23T14:48:58;13.97;;;6.00;;
34565;SDS011;20803;42.676;26.348;2022-07-23T14:51:24;13.63;;;5.63;;
34565;SDS011;20803;42.676;26.348;2022-07-23T14:53:49;11.10;;;5.80;;
34565;SDS011;20803;42.676;26.348;2022-07-23T14:56:15;12.23;;;5.55;;
34565;SDS011;20803;42.676;26.348;2022-07-23T14:58:41;11.97;;;6.07;;
34565;SDS011;20803;42.676;26.348;2022-07-23T15:01:06;11.68;;;5.55;;
34565;SDS011;20803;42.676;26.348;2022-07-23T15:03:32;11.27;;;5.47;;
34565;SDS011;20803;42.676;26.348;2022-07-23T15:05:58;10.47;;;5.80;;
34565;SDS011;20803;42.676;26.348;2022-07-23T15:08:24;8.97;;;5.23;;
34565;SDS011;20803;42.676;26.348;2022-07-23T15:10:49;8.60;;;5.23;;
34565;SDS011;20803;42.676;26.348;2022-07-23T15:13:15;10.27;;;5.17;;
34565;SDS011;20803;42.676;26.348;2022-07-23T15:15:40;8.33;;;5.27;;
34565;SDS011;20803;42.676;26.348;2022-07-23T15:18:06;7.27;;;5.47;;
34565;SDS011;20803;42.676;26.348;2022-07-23T15:20:31;16.77;;;5.67;;
34565;SDS011;20803;42.676;26.348;2022-07-23T15:22:57;11.67;;;5.13;;
34565;SDS011;20803;42.676;26.348;2022-07-23T15:25:23;13.50;;;5.43;;
34565;SDS011;20803;42.676;26.348;2022-07-23T15:27:48;10.27;;;5.60;;
34565;SDS011;20803;42.676;26.348;2022-07-23T15:30:14;9.70;;;5.23;;